sensor_id;sensor_type;location;lat;lon;timestamp;pressure;altitude;pressure_sealevel;temperature;humidity
73551;BME280;61816;53.582;10.096;2023-05-21T00:02:02;54346.13;;;-144.73;100.00
73551;BME280;61816;53.582;10.096;2023-05-21T00:04:28;54346.13;;;-144.73;100.00
73551;BME280;61816;53.582;10.096;2023-05-21T00:06:56;54315.34;;;-144.73;100.00
73551;BME280;61816;53.582;10.096;2023-05-21T00:09:22;54317.38;;;-144.73;100.00
73551;BME280;61816;53.582;10.096;2023-05-21T00:11:48;54370.75;;;-144.73;100.00
73551;BME280;61816;53.582;10.096;2023-05-21T00:14:13;54296.88;;;-144.73;100.00
73551;BME280;61816;53.582;10.096;2023-05-21T00:16:38;54350.22;;;-144.73;100.00
73551;BME280;61816;53.582;10.096;2023-05-21T00:19:04;54317.38;;;-144.73;100.00
73551;BME280;61816;53.582;10.096;2023-05-21T00:21:30;54280.44;;;-144.73;100.00
73551;BME280;61816;53.582;10.096;2023-05-21T00:23:55;54300.97;;;-144.73;100.00
73551;BME280;61816;53.582;10.096;2023-05-21T00:26:21;54342.03;;;-144.73;100.00
73551;BME280;61816;53.582;10.096;2023-05-21T00:28:48;54344.06;;;-144.73;100.00
73551;BME280;61816;53.582;10.096;2023-05-21T00:31:14;54303.03;;;-144.73;100.00
73551;BME280;61816;53.582;10.096;2023-05-21T00:33:40;54305.06;;;-144.73;100.00
73551;BME280;61816;53.582;10.096;2023-05-21T00:36:05;54329.72;;;-144.73;100.00
73551;BME280;61816;53.582;10.096;2023-05-21T00:38:31;54342.03;;;-144.73;100.00
73551;BME280;61816;53.582;10.096;2023-05-21T00:41:03;54342.03;;;-144.73;100.00
73551;BME280;61816;53.582;10.096;2023-05-21T00:43:29;54276.34;;;-144.73;100.00
73551;BME280;61816;53.582;10.096;2023-05-21T00:45:54;54317.38;;;-144.73;100.00
73551;BME280;61816;53.582;10.096;2023-05-21T00:48:21;54288.66;;;-144.73;100.00
73551;BME280;61816;53.582;10.096;2023-05-21T00:50:47;54358.44;;;-144.73;100.00
73551;BME280;61816;53.582;10.096;2023-05-21T00:53:13;54317.38;;;-144.73;100.00
73551;BME280;61816;53.582;10.096;2023-05-21T00:55:39;54319.44;;;-144.73;100.00
73551;BME280;61816;53.582;10.096;2023-05-21T00:58:05;54350.22;;;-144.73;100.00
73551;BME280;61816;53.582;10.096;2023-05-21T01:00:35;54321.50;;;-144.73;100.00
73551;BME280;61816;53.582;10.096;2023-05-21T01:03:01;54327.66;;;-144.73;100.00
73551;BME280;61816;53.582;10.096;2023-05-21T01:05:27;54350.22;;;-144.73;100.00
73551;BME280;61816;53.582;10.096;2023-05-21T01:07:53;54292.75;;;-144.73;100.00
73551;BME280;61816;53.582;10.096;2023-05-21T01:10:20;54288.66;;;-144.73;100.00
73551;BME280;61816;53.582;10.096;2023-05-21T01:12:46;54321.50;;;-144.73;100.00
73551;BME280;61816;53.582;10.096;2023-05-21T01:15:12;54317.38;;;-144.73;100.00
73551;BME280;61816;53.582;10.096;2023-05-21T01:17:38;54323.53;;;-144.73;100.00
73551;BME280;61816;53.582;10.096;2023-05-21T01:20:04;54333.81;;;-144.73;100.00
73551;BME280;61816;53.582;10.096;2023-05-21T01:22:34;54325.59;;;-144.73;100.00
73551;BME280;61816;53.582;10.096;2023-05-21T01:25:00;54333.81;;;-144.73;100.00
73551;BME280;61816;53.582;10.096;2023-05-21T01:27:27;54284.56;;;-144.73;100.00
73551;BME280;61816;53.582;10.096;2023-05-21T01:29:52;54325.59;;;-144.73;100.00
73551;BME280;61816;53.582;10.096;2023-05-21T01:32:25;54329.72;;;-144.73;100.00
73551;BME280;61816;53.582;10.096;2023-05-21T01:35:01;54294.81;;;-144.73;100.00
73551;BME280;61816;53.582;10.096;2023-05-21T01:37:34;54313.28;;;-144.73;100.00
73551;BME280;61816;53.582;10.096;2023-05-21T01:40:13;54333.81;;;-144.73;100.00
73551;BME280;61816;53.582;10.096;2023-05-21T01:42:42;54309.19;;;-144.73;100.00
73551;BME280;61816;53.582;10.096;2023-05-21T01:45:09;54288.66;;;-144.73;100.00
73551;BME280;61816;53.582;10.096;2023-05-21T01:47:36;54321.50;;;-144.73;100.00
73551;BME280;61816;53.582;10.096;2023-05-21T01:50:03;54333.81;;;-144.73;100.00
73551;BME280;61816;53.582;10.096;2023-05-21T01:52:29;54337.91;;;-144.73;100.00
73551;BME280;61816;53.582;10.096;2023-05-21T01:54:58;54356.38;;;-144.73;100.00
73551;BME280;61816;53.582;10.096;2023-05-21T01:57:24;54317.38;;;-144.73;100.00
73551;BME280;61816;53.582;10.096;2023-05-21T01:59:51;54329.72;;;-144.73;100.00
73551;BME280;61816;53.582;10.096;2023-05-21T02:02:17;54339.97;;;-144.73;100.00
73551;BME280;61816;53.582;10.096;2023-05-21T02:04:43;54292.75;;;-144.73;100.00
73551;BME280;61816;53.582;10.096;2023-05-21T02:07:10;54321.50;;;-144.73;100.00
73551;BME280;61816;53.582;10.096;2023-05-21T02:09:38;54309.19;;;-144.73;100.00
73551;BME280;61816;53.582;10.096;2023-05-21T02:12:04;54313.28;;;-144.73;100.00
73551;BME280;61816;53.582;10.096;2023-05-21T02:14:30;54358.44;;;-144.73;100.00
73551;BME280;61816;53.582;10.096;2023-05-21T02:16:58;54342.03;;;-144.73;100.00
73551;BME280;61816;53.582;10.096;2023-05-21T02:19:25;54346.13;;;-144.73;100.00
73551;BME280;61816;53.582;10.096;2023-05-21T02:21:50;54321.50;;;-144.73;100.00
73551;BME280;61816;53.582;10.096;2023-05-21T02:24:15;54300.97;;;-144.73;100.00
73551;BME280;61816;53.582;10.096;2023-05-21T02:26:41;54362.53;;;-144.73;100.00
73551;BME280;61816;53.582;10.096;2023-05-21T02:29:07;54350.22;;;-144.73;100.00
73551;BME280;61816;53.582;10.096;2023-05-21T02:31:33;54280.44;;;-144.73;100.00
73551;BME280;61816;53.582;10.096;2023-05-21T02:33:58;54317.38;;;-144.73;100.00
73551;BME280;61816;53.582;10.096;2023-05-21T02:36:23;54296.88;;;-144.73;100.00
73551;BME280;61816;53.582;10.096;2023-05-21T02:38:49;54317.38;;;-144.73;100.00
73551;BME280;61816;53.582;10.096;2023-05-21T02:41:14;54305.06;;;-144.73;100.00
73551;BME280;61816;53.582;10.096;2023-05-21T02:43:40;54321.50;;;-144.73;100.00
73551;BME280;61816;53.582;10.096;2023-05-21T02:46:06;54305.06;;;-144.73;100.00
73551;BME280;61816;53.582;10.096;2023-05-21T02:48:31;54323.53;;;-144.73;100.00
73551;BME280;61816;53.582;10.096;2023-05-21T02:50:57;54319.44;;;-144.73;100.00
73551;BME280;61816;53.582;10.096;2023-05-21T02:53:23;54315.34;;;-144.73;100.00
73551;BME280;61816;53.582;10.096;2023-05-21T02:55:48;54329.72;;;-144.73;100.00
73551;BME280;61816;53.582;10.096;2023-05-21T02:58:14;54321.50;;;-144.73;100.00
73551;BME280;61816;53.582;10.096;2023-05-21T03:00:39;54366.66;;;-144.73;100.00
73551;BME280;61816;53.582;10.096;2023-05-21T03:03:05;54362.53;;;-144.73;100.00
73551;BME280;61816;53.582;10.096;2023-05-21T03:05:31;54360.50;;;-144.73;100.00
73551;BME280;61816;53.582;10.096;2023-05-21T03:07:56;54331.75;;;-144.73;100.00
73551;BME280;61816;53.582;10.096;2023-05-21T03:10:21;54321.50;;;-144.73;100.00
73551;BME280;61816;53.582;10.096;2023-05-21T03:12:47;54331.75;;;-144.73;100.00
73551;BME280;61816;53.582;10.096;2023-05-21T03:15:12;54317.38;;;-144.73;100.00
73551;BME280;61816;53.582;10.096;2023-05-21T03:17:40;54337.91;;;-144.73;100.00
73551;BME280;61816;53.582;10.096;2023-05-21T03:20:07;54344.06;;;-144.73;100.00
73551;BME280;61816;53.582;10.096;2023-05-21T03:22:33;54280.44;;;-144.73;100.00
73551;BME280;61816;53.582;10.096;2023-05-21T03:24:59;54342.03;;;-144.73;100.00
73551;BME280;61816;53.582;10.096;2023-05-21T03:27:24;54350.22;;;-144.73;100.00
73551;BME280;61816;53.582;10.096;2023-05-21T03:29:50;54315.34;;;-144.73;100.00
73551;BME280;61816;53.582;10.096;2023-05-21T03:32:15;54352.28;;;-144.73;100.00
73551;BME280;61816;53.582;10.096;2023-05-21T03:34:41;54305.06;;;-144.73;100.00
73551;BME280;61816;53.582;10.096;2023-05-21T03:37:06;54346.13;;;-144.73;100.00
73551;BME280;61816;53.582;10.096;2023-05-21T03:39:31;54337.91;;;-144.73;100.00
73551;BME280;61816;53.582;10.096;2023-05-21T03:41:57;54307.13;;;-144.73;100.00
73551;BME280;61816;53.582;10.096;2023-05-21T03:44:22;54309.19;;;-144.73;100.00
73551;BME280;61816;53.582;10.096;2023-05-21T03:46:47;54329.72;;;-144.73;100.00
73551;BME280;61816;53.582;10.096;2023-05-21T03:49:13;54305.06;;;-144.73;100.00
73551;BME280;61816;53.582;10.096;2023-05-21T03:51:38;54342.03;;;-144.73;100.00
73551;BME280;61816;53.582;10.096;2023-05-21T03:54:03;54358.44;;;-144.73;100.00
73551;BME280;61816;53.582;10.096;2023-05-21T03:56:29;54346.13;;;-144.73;100.00
73551;BME280;61816;53.582;10.096;2023-05-21T03:58:54;54317.38;;;-144.73;100.00
73551;BME280;61816;53.582;10.096;2023-05-21T04:01:19;54333.81;;;-144.73;100.00
73551;BME280;61816;53.582;10.096;2023-05-21T04:03:45;54339.97;;;-144.73;100.00
73551;BME280;61816;53.582;10.096;2023-05-21T04:06:10;54333.81;;;-144.73;100.00
73551;BME280;61816;53.582;10.096;2023-05-21T04:08:35;54344.06;;;-144.73;100.00
73551;BME280;61816;53.582;10.096;2023-05-21T04:11:02;54331.75;;;-144.73;100.00
73551;BME280;61816;53.582;10.096;2023-05-21T04:13:27;54284.56;;;-144.73;100.00
73551;BME280;61816;53.582;10.096;2023-05-21T04:15:53;54366.66;;;-144.73;100.00
73551;BME280;61816;53.582;10.096;2023-05-21T04:18:18;54335.88;;;-144.73;100.00
73551;BME280;61816;53.582;10.096;2023-05-21T04:20:44;54325.59;;;-144.73;100.00
73551;BME280;61816;53.582;10.096;2023-05-21T04:23:10;54350.22;;;-144.73;100.00
73551;BME280;61816;53.582;10.096;2023-05-21T04:25:36;54309.19;;;-144.73;100.00
73551;BME280;61816;53.582;10.096;2023-05-21T04:28:03;54321.50;;;-144.73;100.00
73551;BME280;61816;53.582;10.096;2023-05-21T04:30:29;54325.59;;;-144.73;100.00
73551;BME280;61816;53.582;10.096;2023-05-21T04:32:54;54370.75;;;-144.73;100.00
73551;BME280;61816;53.582;10.096;2023-05-21T04:35:19;54354.34;;;-144.73;100.00
73551;BME280;61816;53.582;10.096;2023-05-21T04:37:45;54317.38;;;-144.73;100.00
73551;BME280;61816;53.582;10.096;2023-05-21T04:40:12;54370.75;;;-144.73;100.00
73551;BME280;61816;53.582;10.096;2023-05-21T04:42:45;54366.66;;;-144.73;100.00
73551;BME280;61816;53.582;10.096;2023-05-21T04:45:12;54311.22;;;-144.73;100.00
73551;BME280;61816;53.582;10.096;2023-05-21T04:47:38;54360.50;;;-144.73;100.00
73551;BME280;61816;53.582;10.096;2023-05-21T04:50:03;54354.34;;;-144.73;100.00
73551;BME280;61816;53.582;10.096;2023-05-21T04:52:29;54346.13;;;-144.73;100.00
73551;BME280;61816;53.582;10.096;2023-05-21T04:54:55;54354.34;;;-144.73;100.00
73551;BME280;61816;53.582;10.096;2023-05-21T04:57:21;54325.59;;;-144.73;100.00
73551;BME280;61816;53.582;10.096;2023-05-21T04:59:48;54333.81;;;-144.73;100.00
73551;BME280;61816;53.582;10.096;2023-05-21T05:02:13;54294.81;;;-144.73;100.00
73551;BME280;61816;53.582;10.096;2023-05-21T05:04:39;54329.72;;;-144.73;100.00
73551;BME280;61816;53.582;10.096;2023-05-21T05:07:04;54309.19;;;-144.73;100.00
73551;BME280;61816;53.582;10.096;2023-05-21T05:09:29;54350.22;;;-144.73;100.00
73551;BME280;61816;53.582;10.096;2023-05-21T05:11:55;54337.91;;;-144.73;100.00
73551;BME280;61816;53.582;10.096;2023-05-21T05:14:21;54350.22;;;-144.73;100.00
73551;BME280;61816;53.582;10.096;2023-05-21T05:16:46;54321.50;;;-144.73;100.00
73551;BME280;61816;53.582;10.096;2023-05-21T05:19:14;54337.91;;;-144.73;100.00
73551;BME280;61816;53.582;10.096;2023-05-21T05:21:40;54362.53;;;-144.73;100.00
73551;BME280;61816;53.582;10.096;2023-05-21T05:24:05;54317.38;;;-144.73;100.00
73551;BME280;61816;53.582;10.096;2023-05-21T05:26:30;54358.44;;;-144.73;100.00
73551;BME280;61816;53.582;10.096;2023-05-21T05:28:56;54381.00;;;-144.73;100.00
73551;BME280;61816;53.582;10.096;2023-05-21T05:31:21;54292.75;;;-144.73;100.00
73551;BME280;61816;53.582;10.096;2023-05-21T05:33:47;54335.88;;;-144.73;100.00
73551;BME280;61816;53.582;10.096;2023-05-21T05:36:12;54329.72;;;-144.73;100.00
73551;BME280;61816;53.582;10.096;2023-05-21T05:38:37;54350.22;;;-144.73;100.00
73551;BME280;61816;53.582;10.096;2023-05-21T05:41:03;54346.13;;;-144.73;100.00
73551;BME280;61816;53.582;10.096;2023-05-21T05:43:28;54342.03;;;-144.73;100.00
73551;BME280;61816;53.582;10.096;2023-05-21T05:45:54;54276.34;;;-144.73;100.00
73551;BME280;61816;53.582;10.096;2023-05-21T05:48:19;54346.13;;;-144.73;100.00
73551;BME280;61816;53.582;10.096;2023-05-21T05:50:44;54346.13;;;-144.73;100.00
73551;BME280;61816;53.582;10.096;2023-05-21T05:53:10;54333.81;;;-144.73;100.00
73551;BME280;61816;53.582;10.096;2023-05-21T05:55:38;54339.97;;;-144.73;100.00
73551;BME280;61816;53.582;10.096;2023-05-21T05:58:03;54342.03;;;-144.73;100.00
73551;BME280;61816;53.582;10.096;2023-05-21T06:00:29;54354.34;;;-144.73;100.00
73551;BME280;61816;53.582;10.096;2023-05-21T06:02:54;54374.84;;;-144.73;100.00
73551;BME280;61816;53.582;10.096;2023-05-21T06:05:19;54307.13;;;-144.73;100.00
73551;BME280;61816;53.582;10.096;2023-05-21T06:07:45;54333.81;;;-144.73;100.00
73551;BME280;61816;53.582;10.096;2023-05-21T06:10:10;54346.13;;;-144.73;100.00
73551;BME280;61816;53.582;10.096;2023-05-21T06:12:36;54309.19;;;-144.73;100.00
73551;BME280;61816;53.582;10.096;2023-05-21T06:15:01;54374.84;;;-144.73;100.00
73551;BME280;61816;53.582;10.096;2023-05-21T06:17:27;54329.72;;;-144.73;100.00
73551;BME280;61816;53.582;10.096;2023-05-21T06:19:52;54337.91;;;-144.73;100.00
73551;BME280;61816;53.582;10.096;2023-05-21T06:22:17;54346.13;;;-144.73;100.00
73551;BME280;61816;53.582;10.096;2023-05-21T06:24:43;54354.34;;;-144.73;100.00
73551;BME280;61816;53.582;10.096;2023-05-21T06:27:08;54325.59;;;-144.73;100.00
73551;BME280;61816;53.582;10.096;2023-05-21T06:29:33;54352.28;;;-144.73;100.00
73551;BME280;61816;53.582;10.096;2023-05-21T06:31:59;54327.66;;;-144.73;100.00
73551;BME280;61816;53.582;10.096;2023-05-21T06:34:25;54313.28;;;-144.73;100.00
73551;BME280;61816;53.582;10.096;2023-05-21T06:36:51;54305.06;;;-144.73;100.00
73551;BME280;61816;53.582;10.096;2023-05-21T06:39:16;54325.59;;;-144.73;100.00
73551;BME280;61816;53.582;10.096;2023-05-21T06:41:42;54276.34;;;-144.73;100.00
73551;BME280;61816;53.582;10.096;2023-05-21T06:44:07;54337.91;;;-144.73;100.00
73551;BME280;61816;53.582;10.096;2023-05-21T06:46:33;54323.53;;;-144.73;100.00
73551;BME280;61816;53.582;10.096;2023-05-21T06:48:59;54325.59;;;-144.73;100.00
73551;BME280;61816;53.582;10.096;2023-05-21T06:51:25;54325.59;;;-144.73;100.00
73551;BME280;61816;53.582;10.096;2023-05-21T06:53:50;54337.91;;;-144.73;100.00
73551;BME280;61816;53.582;10.096;2023-05-21T06:56:16;54333.81;;;-144.73;100.00
73551;BME280;61816;53.582;10.096;2023-05-21T06:58:41;54292.75;;;-144.73;100.00
73551;BME280;61816;53.582;10.096;2023-05-21T07:01:07;54329.72;;;-144.73;100.00
73551;BME280;61816;53.582;10.096;2023-05-21T07:03:32;54329.72;;;-144.73;100.00
73551;BME280;61816;53.582;10.096;2023-05-21T07:05:57;54315.34;;;-144.73;100.00
73551;BME280;61816;53.582;10.096;2023-05-21T07:08:23;54333.81;;;-144.73;99.33
73551;BME280;61816;53.582;10.096;2023-05-21T07:10:48;54305.06;;;-144.73;99.85
73551;BME280;61816;53.582;10.096;2023-05-21T07:13:14;54313.28;;;-144.73;99.35
73551;BME280;61816;53.582;10.096;2023-05-21T07:15:40;54296.88;;;-144.73;98.37
73551;BME280;61816;53.582;10.096;2023-05-21T07:18:05;54323.53;;;-144.73;97.42
73551;BME280;61816;53.582;10.096;2023-05-21T07:20:30;54300.97;;;-144.73;97.02
73551;BME280;61816;53.582;10.096;2023-05-21T07:22:56;54354.34;;;-144.73;96.10
73551;BME280;61816;53.582;10.096;2023-05-21T07:25:22;54288.66;;;-144.73;97.14
73551;BME280;61816;53.582;10.096;2023-05-21T07:27:47;54319.44;;;-144.73;97.41
73551;BME280;61816;53.582;10.096;2023-05-21T07:30:13;54300.97;;;-144.73;96.15
73551;BME280;61816;53.582;10.096;2023-05-21T07:32:38;54321.50;;;-144.73;98.32
73551;BME280;61816;53.582;10.096;2023-05-21T07:35:04;54237.34;;;-144.73;98.31
73551;BME280;61816;53.582;10.096;2023-05-21T07:37:30;54243.50;;;-144.73;97.57
73551;BME280;61816;53.582;10.096;2023-05-21T07:39:56;54321.50;;;-144.73;95.01
73551;BME280;61816;53.582;10.096;2023-05-21T07:42:25;54305.06;;;-144.73;95.08
73551;BME280;61816;53.582;10.096;2023-05-21T07:44:51;54313.28;;;-144.73;94.64
73551;BME280;61816;53.582;10.096;2023-05-21T07:47:16;54290.72;;;-144.73;93.76
73551;BME280;61816;53.582;10.096;2023-05-21T07:49:41;54335.88;;;-144.73;92.86
73551;BME280;61816;53.582;10.096;2023-05-21T07:52:07;54288.66;;;-144.73;93.94
73551;BME280;61816;53.582;10.096;2023-05-21T07:54:32;54296.88;;;-144.73;94.18
73551;BME280;61816;53.582;10.096;2023-05-21T07:56:58;54296.88;;;-144.73;93.87
73551;BME280;61816;53.582;10.096;2023-05-21T07:59:24;54284.56;;;-144.73;94.60
73551;BME280;61816;53.582;10.096;2023-05-21T08:01:50;54329.72;;;-144.73;93.44
73551;BME280;61816;53.582;10.096;2023-05-21T08:04:16;54313.28;;;-144.73;92.94
73551;BME280;61816;53.582;10.096;2023-05-21T08:06:41;54276.34;;;-144.73;91.47
73551;BME280;61816;53.582;10.096;2023-05-21T08:09:06;54300.97;;;-144.73;91.49
73551;BME280;61816;53.582;10.096;2023-05-21T08:11:32;54282.50;;;-144.73;91.44
73551;BME280;61816;53.582;10.096;2023-05-21T08:13:57;54313.28;;;-144.73;90.09
73551;BME280;61816;53.582;10.096;2023-05-21T08:16:23;54309.19;;;-144.73;88.87
73551;BME280;61816;53.582;10.096;2023-05-21T08:18:49;54354.34;;;-144.73;89.42
73551;BME280;61816;53.582;10.096;2023-05-21T08:21:14;54337.91;;;-144.73;89.71
73551;BME280;61816;53.582;10.096;2023-05-21T08:23:41;54255.81;;;-144.73;88.77
73551;BME280;61816;53.582;10.096;2023-05-21T08:26:06;54300.97;;;-144.73;87.67
73551;BME280;61816;53.582;10.096;2023-05-21T08:28:32;54313.28;;;-144.73;87.03
73551;BME280;61816;53.582;10.096;2023-05-21T08:31:00;54303.03;;;-144.73;88.26
73551;BME280;61816;53.582;10.096;2023-05-21T08:33:26;54284.56;;;-144.73;86.57
73551;BME280;61816;53.582;10.096;2023-05-21T08:35:52;54309.19;;;-144.73;87.12
73551;BME280;61816;53.582;10.096;2023-05-21T08:38:23;54288.66;;;-144.73;85.81
73551;BME280;61816;53.582;10.096;2023-05-21T08:43:38;54292.75;;;-144.73;86.21
73551;BME280;61816;53.582;10.096;2023-05-21T08:46:05;54309.19;;;-144.73;85.83
73551;BME280;61816;53.582;10.096;2023-05-21T08:48:38;54309.19;;;-144.73;85.52
73551;BME280;61816;53.582;10.096;2023-05-21T08:51:04;54313.28;;;-144.73;85.93
73551;BME280;61816;53.582;10.096;2023-05-21T08:53:31;54321.50;;;-144.73;88.21
73551;BME280;61816;53.582;10.096;2023-05-21T08:55:57;54280.44;;;-144.73;87.09
73551;BME280;61816;53.582;10.096;2023-05-21T08:58:23;54309.19;;;-144.73;87.88
73551;BME280;61816;53.582;10.096;2023-05-21T09:00:48;54296.88;;;-144.73;87.94
73551;BME280;61816;53.582;10.096;2023-05-21T09:03:14;54276.34;;;-144.73;89.33
73551;BME280;61816;53.582;10.096;2023-05-21T09:05:41;54280.44;;;-144.73;88.52
73551;BME280;61816;53.582;10.096;2023-05-21T09:08:13;54300.97;;;-144.73;88.07
73551;BME280;61816;53.582;10.096;2023-05-21T09:10:47;54305.06;;;-144.73;87.95
73551;BME280;61816;53.582;10.096;2023-05-21T09:13:13;54342.03;;;-144.73;87.71
73551;BME280;61816;53.582;10.096;2023-05-21T09:15:41;54276.34;;;-144.73;88.08
73551;BME280;61816;53.582;10.096;2023-05-21T09:18:07;54309.19;;;-144.73;87.05
73551;BME280;61816;53.582;10.096;2023-05-21T09:20:33;54276.34;;;-144.73;87.00
73551;BME280;61816;53.582;10.096;2023-05-21T09:23:02;54282.50;;;-144.73;85.11
73551;BME280;61816;53.582;10.096;2023-05-21T09:25:28;54313.28;;;-144.73;85.85
73551;BME280;61816;53.582;10.096;2023-05-21T09:27:57;54317.38;;;-144.73;87.16
73551;BME280;61816;53.582;10.096;2023-05-21T09:30:23;54305.06;;;-144.73;86.71
73551;BME280;61816;53.582;10.096;2023-05-21T09:32:56;54276.34;;;-144.73;86.50
73551;BME280;61816;53.582;10.096;2023-05-21T09:35:22;54276.34;;;-144.73;86.37
73551;BME280;61816;53.582;10.096;2023-05-21T09:37:49;54300.97;;;-144.73;87.16
73551;BME280;61816;53.582;10.096;2023-05-21T09:40:21;54329.72;;;-144.73;85.88
73551;BME280;61816;53.582;10.096;2023-05-21T09:42:51;54292.75;;;-144.73;86.35
73551;BME280;61816;53.582;10.096;2023-05-21T09:45:21;54280.44;;;-144.73;85.20
73551;BME280;61816;53.582;10.096;2023-05-21T09:47:47;54259.91;;;-144.73;84.33
73551;BME280;61816;53.582;10.096;2023-05-21T09:50:17;54259.91;;;-144.73;83.55
73551;BME280;61816;53.582;10.096;2023-05-21T09:52:43;54276.34;;;-144.73;82.17
73551;BME280;61816;53.582;10.096;2023-05-21T09:55:10;54288.66;;;-144.73;81.18
73551;BME280;61816;53.582;10.096;2023-05-21T09:57:46;54276.34;;;-144.73;83.40
73551;BME280;61816;53.582;10.096;2023-05-21T10:02:47;54288.66;;;-144.73;82.55
73551;BME280;61816;53.582;10.096;2023-05-21T10:05:14;54342.03;;;-144.73;81.50
73551;BME280;61816;53.582;10.096;2023-05-21T10:07:41;54276.34;;;-144.73;80.72
73551;BME280;61816;53.582;10.096;2023-05-21T10:10:12;54276.34;;;-144.73;81.40
73551;BME280;61816;53.582;10.096;2023-05-21T10:12:40;54264.03;;;-144.73;81.19
73551;BME280;61816;53.582;10.096;2023-05-21T10:15:08;54239.41;;;-144.73;78.94
73551;BME280;61816;53.582;10.096;2023-05-21T10:17:38;54235.28;;;-144.73;78.43
73551;BME280;61816;53.582;10.096;2023-05-21T10:20:05;54198.34;;;-144.73;78.56
73551;BME280;61816;53.582;10.096;2023-05-21T10:22:31;54313.28;;;-144.73;79.42
73551;BME280;61816;53.582;10.096;2023-05-21T10:24:57;54251.72;;;-144.73;76.99
73551;BME280;61816;53.582;10.096;2023-05-21T10:27:22;54276.34;;;-144.73;78.10
73551;BME280;61816;53.582;10.096;2023-05-21T10:29:48;54342.03;;;-144.73;77.02
73551;BME280;61816;53.582;10.096;2023-05-21T10:32:15;54206.56;;;-144.73;76.92
73551;BME280;61816;53.582;10.096;2023-05-21T10:34:44;54227.09;;;-144.73;76.68
73551;BME280;61816;53.582;10.096;2023-05-21T10:37:11;54235.28;;;-144.73;76.74
73551;BME280;61816;53.582;10.096;2023-05-21T10:39:38;54342.03;;;-144.73;76.20
73551;BME280;61816;53.582;10.096;2023-05-21T10:42:20;54278.41;;;-144.73;74.23
73551;BME280;61816;53.582;10.096;2023-05-21T10:45:22;54247.59;;;-144.73;73.93
73551;BME280;61816;53.582;10.096;2023-05-21T10:48:29;54216.81;;;-144.73;71.07
73551;BME280;61816;53.582;10.096;2023-05-21T10:53:51;54227.09;;;-144.73;71.00
73551;BME280;61816;53.582;10.096;2023-05-21T10:56:40;54243.50;;;-144.73;69.44
73551;BME280;61816;53.582;10.096;2023-05-21T10:59:15;54251.72;;;-144.73;69.62
73551;BME280;61816;53.582;10.096;2023-05-21T11:01:48;54231.19;;;-144.73;67.78
73551;BME280;61816;53.582;10.096;2023-05-21T11:04:20;54239.41;;;-144.73;71.13
73551;BME280;61816;53.582;10.096;2023-05-21T11:06:46;54276.34;;;-144.73;69.60
73551;BME280;61816;53.582;10.096;2023-05-21T11:09:13;54241.44;;;-144.73;69.01
73551;BME280;61816;53.582;10.096;2023-05-21T11:14:38;54231.19;;;-144.73;66.15
73551;BME280;61816;53.582;10.096;2023-05-21T11:17:38;54206.56;;;-144.73;66.73
73551;BME280;61816;53.582;10.096;2023-05-21T11:20:09;54227.09;;;-144.73;67.42
73551;BME280;61816;53.582;10.096;2023-05-21T11:22:35;54210.66;;;-144.73;67.65
73551;BME280;61816;53.582;10.096;2023-05-21T11:25:01;54237.34;;;-144.73;65.85
73551;BME280;61816;53.582;10.096;2023-05-21T11:27:40;54235.28;;;-144.73;64.42
73551;BME280;61816;53.582;10.096;2023-05-21T11:30:08;54237.34;;;-144.73;64.34
73551;BME280;61816;53.582;10.096;2023-05-21T11:35:27;54243.50;;;-144.73;62.34
73551;BME280;61816;53.582;10.096;2023-05-21T11:37:52;54218.88;;;-144.73;61.76
73551;BME280;61816;53.582;10.096;2023-05-21T11:40:24;54218.88;;;-144.73;62.37
73551;BME280;61816;53.582;10.096;2023-05-21T11:42:52;54216.81;;;-144.73;60.98
73551;BME280;61816;53.582;10.096;2023-05-21T11:45:19;54231.19;;;-144.73;60.35
73551;BME280;61816;53.582;10.096;2023-05-21T11:47:46;54210.66;;;-144.73;60.37
73551;BME280;61816;53.582;10.096;2023-05-21T11:50:13;54194.25;;;-144.73;60.54
73551;BME280;61816;53.582;10.096;2023-05-21T11:52:40;54222.97;;;-144.73;61.07
73551;BME280;61816;53.582;10.096;2023-05-21T11:55:08;54206.56;;;-144.73;61.90
73551;BME280;61816;53.582;10.096;2023-05-21T11:57:35;54206.56;;;-144.73;62.60
73551;BME280;61816;53.582;10.096;2023-05-21T12:00:01;54225.03;;;-144.73;61.61
73551;BME280;61816;53.582;10.096;2023-05-21T12:02:33;54206.56;;;-144.73;62.78
73551;BME280;61816;53.582;10.096;2023-05-21T12:04:58;54214.78;;;-144.73;61.90
73551;BME280;61816;53.582;10.096;2023-05-21T12:07:26;54194.25;;;-144.73;60.83
73551;BME280;61816;53.582;10.096;2023-05-21T12:09:55;54239.41;;;-144.73;59.16
73551;BME280;61816;53.582;10.096;2023-05-21T12:12:24;54239.41;;;-144.73;61.44
73551;BME280;61816;53.582;10.096;2023-05-21T12:14:52;54202.44;;;-144.73;60.89
73551;BME280;61816;53.582;10.096;2023-05-21T12:19:45;54239.41;;;-144.73;60.70
73551;BME280;61816;53.582;10.096;2023-05-21T12:22:11;54210.66;;;-144.73;60.78
73551;BME280;61816;53.582;10.096;2023-05-21T12:24:37;54218.88;;;-144.73;61.59
73551;BME280;61816;53.582;10.096;2023-05-21T12:27:04;54157.31;;;-144.73;60.01
73551;BME280;61816;53.582;10.096;2023-05-21T12:29:37;54206.56;;;-144.73;61.88
73551;BME280;61816;53.582;10.096;2023-05-21T12:32:04;54261.97;;;-144.73;60.34
73551;BME280;61816;53.582;10.096;2023-05-21T12:34:52;54235.28;;;-144.73;60.93
73551;BME280;61816;53.582;10.096;2023-05-21T12:37:22;54186.03;;;-144.73;61.24
73551;BME280;61816;53.582;10.096;2023-05-21T12:39:50;54204.50;;;-144.73;62.14
73551;BME280;61816;53.582;10.096;2023-05-21T12:42:23;54173.72;;;-144.73;62.04